Time;durP1;ratioP1;P1;durP2;ratioP2;P2;SDS_P1;SDS_P2;PMS_P1;PMS_P2;Temp;Humidity;BMP_temperature;BMP_pressure;BME280_temperature;BME280_humidity;BME280_pressure;Samples;Min_cycle;Max_cycle;Signal;HPM_P1;HPM_P2
2023/08/26 00:04:23;;;;;;;12.50;6.40;;;;;;;25.52;65.59;98535.43;223537;179;138681;-63
2023/08/26 00:09:26;;;;;;;8.30;5.80;;;;;;;25.44;66.34;98535.48;223669;182;136834;-64
2023/08/26 00:14:29;;;;;;;8.80;6.50;;;;;;;25.43;65.69;98521.13;223662;182;145783;-62
2023/08/26 00:19:33;;;;;;;9.40;6.30;;;;;;;25.37;66.11;98514.48;223780;182;138539;-62
2023/08/26 00:24:36;;;;;;;12.50;6.70;;;;;;;25.23;66.31;98506.97;223644;181;137482;-62
2023/08/26 00:29:42;;;;;;;10.50;6.70;;;;;;;25.20;67.03;98497.06;223790;182;145825;-62
2023/08/26 00:34:45;;;;;;;9.50;6.60;;;;;;;25.11;68.00;98496.59;223555;181;139517;-60
2023/08/26 00:39:49;;;;;;;8.50;6.70;;;;;;;25.07;68.37;98502.02;223720;181;137047;-62
2023/08/26 00:46:21;;;;;;;9.10;6.90;;;;;;;25.09;68.83;98505.30;221926;193;666291;-62
2023/08/26 00:51:25;;;;;;;;;;;;;;;25.00;69.06;98497.14;223608;183;136392;-64
2023/08/26 00:56:28;;;;;;;13.30;7.50;;;;;;;24.90;69.38;98494.07;223680;183;145535;-60
2023/08/26 01:01:32;;;;;;;8.40;6.50;;;;;;;24.82;69.88;98492.47;223534;184;138698;-62
2023/08/26 01:06:35;;;;;;;11.90;7.10;;;;;;;24.76;70.31;98493.52;223569;184;137078;-63
2023/08/26 01:11:39;;;;;;;11.00;7.20;;;;;;;24.76;70.72;98490.05;223404;184;144522;-60
2023/08/26 01:16:42;;;;;;;10.10;7.20;;;;;;;24.76;70.54;98495.02;223446;183;138907;-60
2023/08/26 01:21:49;;;;;;;9.90;7.20;;;;;;;24.80;70.48;98501.91;223485;183;137049;-61
2023/08/26 01:26:52;;;;;;;14.10;7.20;;;;;;;24.81;69.46;98510.17;223523;183;144546;-60
2023/08/26 01:32:09;;;;;;;10.20;7.50;;;;;;;24.85;68.95;98515.05;223447;184;138866;-60
2023/08/26 01:37:15;;;;;;;12.70;7.00;;;;;;;24.88;69.06;98514.36;223429;184;140478;-59
2023/08/26 01:42:23;;;;;;;11.90;6.70;;;;;;;24.91;68.64;98514.55;223457;183;146553;-63
2023/08/26 01:47:26;;;;;;;9.60;7.00;;;;;;;24.97;68.05;98514.00;223286;183;139707;-63
2023/08/26 01:52:30;;;;;;;13.90;7.30;;;;;;;24.99;68.02;98512.30;223431;183;139160;-61
2023/08/26 01:57:33;;;;;;;15.90;7.90;;;;;;;25.00;67.85;98511.30;223360;184;145394;-62
2023/08/26 02:02:37;;;;;;;14.00;8.10;;;;;;;24.98;67.70;98510.83;223322;184;138959;-61
2023/08/26 02:07:42;;;;;;;14.00;7.60;;;;;;;24.95;67.39;98507.08;223407;184;137571;-63
2023/08/26 02:12:45;;;;;;;12.20;7.80;;;;;;;24.90;66.98;98498.47;223415;183;146315;-63
2023/08/26 02:17:48;;;;;;;12.70;7.60;;;;;;;24.85;67.01;98491.52;223408;184;139608;-62
2023/08/26 02:22:52;;;;;;;10.70;6.90;;;;;;;24.81;67.37;98490.55;223356;184;137602;-62
2023/08/26 02:27:56;;;;;;;11.20;7.20;;;;;;;24.70;68.07;98484.56;223465;184;145688;-61
2023/08/26 02:33:02;;;;;;;13.40;7.10;;;;;;;24.60;68.39;98481.34;223320;184;138601;-65
2023/08/26 02:38:07;;;;;;;12.00;7.40;;;;;;;24.54;68.89;98482.45;223432;184;139107;-62
2023/08/26 02:43:10;;;;;;;11.50;7.20;;;;;;;24.44;69.19;98486.30;223400;184;146362;-63
2023/08/26 02:48:13;;;;;;;14.10;7.60;;;;;;;24.32;69.70;98492.53;223389;184;140134;-61
2023/08/26 02:53:18;;;;;;;15.40;8.30;;;;;;;24.20;70.06;98496.52;223394;184;137963;-60
2023/08/26 02:58:22;;;;;;;13.70;7.10;;;;;;;24.18;69.88;98502.83;223419;184;145569;-62
2023/08/26 03:03:25;;;;;;;12.10;7.10;;;;;;;24.27;69.43;98506.89;223381;184;139471;-61
2023/08/26 03:08:28;;;;;;;13.50;7.40;;;;;;;24.33;68.95;98514.77;223470;184;136794;-59
2023/08/26 03:13:32;;;;;;;15.70;8.50;;;;;;;24.33;68.98;98525.05;223488;184;145623;-61
2023/08/26 03:18:36;;;;;;;16.00;8.10;;;;;;;24.33;68.92;98520.45;223325;184;138764;-63
2023/08/26 03:23:39;;;;;;;16.20;8.50;;;;;;;24.31;68.62;98521.81;223372;184;137187;-61
2023/08/26 03:28:42;;;;;;;13.00;8.20;;;;;;;24.29;68.95;98515.95;223197;184;145850;-61
2023/08/26 03:33:46;;;;;;;14.90;7.60;;;;;;;24.17;69.24;98521.81;223334;184;138972;-60
2023/08/26 03:38:49;;;;;;;14.30;7.00;;;;;;;24.11;69.03;98524.02;223402;183;140464;-60
2023/08/26 03:43:53;;;;;;;14.30;7.50;;;;;;;24.16;69.07;98521.43;223432;184;145478;-63
2023/08/26 03:48:56;;;;;;;10.40;7.00;;;;;;;24.16;69.10;98527.05;223417;183;140784;-60
2023/08/26 03:53:59;;;;;;;13.60;7.40;;;;;;;24.20;69.02;98535.81;223106;184;137459;-60
2023/08/26 03:59:03;;;;;;;12.50;7.80;;;;;;;24.11;69.42;98539.24;223394;184;145930;-63
2023/08/26 04:04:06;;;;;;;14.10;7.80;;;;;;;23.98;69.86;98545.80;223355;184;153990;-61
2023/08/26 04:09:09;;;;;;;17.20;7.30;;;;;;;23.86;70.28;98548.31;223484;184;137934;-61
2023/08/26 04:14:13;;;;;;;13.30;7.90;;;;;;;23.79;70.66;98549.82;223427;184;145407;-61
2023/08/26 04:19:16;;;;;;;16.10;7.30;;;;;;;23.74;70.84;98563.10;223396;184;138760;-61
2023/08/26 04:24:19;;;;;;;11.40;7.80;;;;;;;23.83;70.91;98566.67;223226;184;137405;-61
2023/08/26 04:29:22;;;;;;;13.40;7.40;;;;;;;23.81;71.13;98569.08;223215;183;145972;-60
2023/08/26 04:34:26;;;;;;;14.00;7.90;;;;;;;23.79;71.34;98576.41;223430;184;139605;-61
2023/08/26 04:39:29;;;;;;;14.60;8.30;;;;;;;23.76;71.70;98578.05;223436;184;137167;-60
2023/08/26 04:44:32;;;;;;;15.80;7.70;;;;;;;23.75;71.92;98581.98;223448;184;146493;-62
2023/08/26 04:49:35;;;;;;;19.20;8.30;;;;;;;23.77;71.98;98583.66;223373;184;141206;-61
2023/08/26 04:54:39;;;;;;;14.10;8.20;;;;;;;23.80;71.94;98580.81;223436;184;136946;-64
2023/08/26 04:59:42;;;;;;;13.90;7.80;;;;;;;23.82;71.90;98588.48;223325;184;145490;-61
2023/08/26 05:04:46;;;;;;;15.70;8.40;;;;;;;23.83;72.06;98591.60;223366;184;138906;-61
2023/08/26 05:09:49;;;;;;;13.40;7.60;;;;;;;23.83;72.16;98587.25;223355;184;137466;-62
2023/08/26 05:14:52;;;;;;;13.00;7.30;;;;;;;23.88;72.03;98581.19;223364;184;145776;-60
2023/08/26 05:19:55;;;;;;;13.40;8.60;;;;;;;23.98;72.29;98581.71;223311;184;138975;-60
2023/08/26 05:24:59;;;;;;;15.20;8.50;;;;;;;24.09;72.30;98570.12;223337;183;136998;-60
2023/08/26 05:30:03;;;;;;;11.30;7.40;;;;;;;24.17;72.31;98565.48;223327;184;147642;-62
2023/08/26 05:35:14;;;;;;;10.70;7.50;;;;;;;24.26;72.08;98572.52;223273;184;138980;-62
2023/08/26 05:40:17;;;;;;;12.60;7.40;;;;;;;24.34;72.08;98570.88;223387;184;137369;-58
2023/08/26 05:45:20;;;;;;;8.30;5.80;;;;;;;24.46;71.69;98572.19;223402;184;145937;-62
2023/08/26 05:50:23;;;;;;;11.20;6.00;;;;;;;24.69;70.34;98570.71;223376;184;140486;-60
2023/08/26 05:55:26;;;;;;;11.50;5.70;;;;;;;24.92;68.75;98574.58;223290;184;136648;-60
2023/08/26 06:00:30;;;;;;;11.50;6.70;;;;;;;25.04;67.65;98573.40;223436;184;146696;-62
2023/08/26 06:05:33;;;;;;;11.50;5.70;;;;;;;25.13;67.47;98574.15;223294;184;140046;-62
2023/08/26 06:10:36;;;;;;;8.20;5.50;;;;;;;25.20;67.42;98581.50;223452;184;137978;-63
2023/08/26 06:15:39;;;;;;;10.20;6.40;;;;;;;25.28;66.85;98582.80;223379;184;146328;-61
2023/08/26 06:26:25;;;;;;;13.30;5.80;;;;;;;25.47;66.53;98588.52;221862;193;665902;-64
2023/08/26 06:31:28;;;;;;;9.80;5.90;;;;;;;25.56;66.06;98596.11;222978;187;137055;-61
2023/08/26 06:36:32;;;;;;;7.80;6.20;;;;;;;25.66;65.60;98601.27;223418;184;145619;-62
2023/08/26 06:41:36;;;;;;;8.50;6.20;;;;;;;25.75;65.70;98598.39;223239;185;138990;-63
2023/08/26 06:46:40;;;;;;;10.80;6.50;;;;;;;25.90;65.76;98599.65;223351;184;136939;-64
2023/08/26 06:51:43;;;;;;;10.10;6.10;;;;;;;26.04;65.33;98601.49;223376;185;144158;-61
2023/08/26 06:56:47;;;;;;;10.70;6.40;;;;;;;26.17;65.13;98602.53;223413;184;139526;-61
2023/08/26 07:01:50;;;;;;;11.40;7.10;;;;;;;26.30;64.73;98615.20;223524;184;137035;-61
2023/08/26 07:06:53;;;;;;;16.50;5.80;;;;;;;26.37;64.31;98623.83;223481;184;144048;-60
2023/08/26 07:11:56;;;;;;;7.60;5.20;;;;;;;26.51;63.54;98617.77;223732;182;139261;-58
2023/08/26 07:17:02;;;;;;;10.00;5.70;;;;;;;26.65;62.06;98617.84;223835;181;137305;-61
2023/08/26 07:22:05;;;;;;;10.60;4.80;;;;;;;26.77;61.21;98614.77;223650;181;147318;-58
2023/08/26 07:27:09;;;;;;;7.40;5.30;;;;;;;26.84;60.46;98623.91;223589;182;138974;-61
2023/08/26 07:32:12;;;;;;;10.80;4.90;;;;;;;26.92;59.84;98621.25;223710;182;137439;-60
2023/08/26 07:37:15;;;;;;;10.00;5.30;;;;;;;27.00;59.37;98623.89;223603;183;146253;-60
2023/08/26 07:42:18;;;;;;;8.60;4.40;;;;;;;27.08;58.92;98629.06;223716;181;139396;-61
2023/08/26 07:47:22;;;;;;;8.20;4.30;;;;;;;27.18;58.40;98628.79;223597;181;137689;-60
2023/08/26 07:52:25;;;;;;;8.70;4.50;;;;;;;27.30;58.16;98622.84;223626;182;145726;-59
2023/08/26 07:57:32;;;;;;;10.00;4.10;;;;;;;27.39;57.25;98621.44;223662;182;140175;-59
2023/08/26 08:02:35;;;;;;;9.80;4.70;;;;;;;27.47;56.47;98622.92;223727;181;137275;-59
2023/08/26 08:07:38;;;;;;;9.10;4.40;;;;;;;27.60;56.39;98623.52;223682;181;145824;-57
2023/08/26 08:12:41;;;;;;;9.30;4.10;;;;;;;27.75;56.26;98619.50;223650;182;138892;-59
2023/08/26 08:17:44;;;;;;;11.10;4.50;;;;;;;27.85;55.46;98618.42;223694;182;140603;-59
2023/08/26 08:22:48;;;;;;;5.40;3.90;;;;;;;27.92;54.28;98616.70;223666;181;145325;-58
2023/08/26 08:27:52;;;;;;;8.80;4.10;;;;;;;27.96;53.90;98621.52;223658;181;139390;-59
2023/08/26 08:32:55;;;;;;;4.40;3.40;;;;;;;28.03;53.75;98612.48;223612;182;136852;-58
2023/08/26 08:37:59;;;;;;;6.60;4.40;;;;;;;28.12;52.64;98613.58;223605;182;145676;-59
2023/08/26 08:43:05;;;;;;;6.70;4.10;;;;;;;28.19;53.09;98611.14;223632;181;139159;-56
2023/08/26 08:48:10;;;;;;;6.50;4.00;;;;;;;28.28;52.25;98612.64;223719;182;137266;-57
2023/08/26 08:53:16;;;;;;;10.80;8.60;;;;;;;28.34;52.13;98608.02;223717;182;145717;-58
2023/08/26 08:58:21;;;;;;;11.20;4.90;;;;;;;28.38;52.29;98602.77;223681;181;138920;-59
2023/08/26 09:03:24;;;;;;;6.40;3.30;;;;;;;28.49;51.63;98605.46;223643;181;139431;-59
2023/08/26 09:08:29;;;;;;;7.00;4.30;;;;;;;28.57;50.73;98591.54;223674;181;147206;-57
2023/08/26 09:13:32;;;;;;;6.80;4.10;;;;;;;28.67;51.10;98584.81;223593;182;139672;-58
2023/08/26 09:18:39;;;;;;;5.70;4.60;;;;;;;28.75;50.67;98579.81;223691;181;137170;-58
2023/08/26 09:23:43;;;;;;;7.40;4.50;;;;;;;28.83;50.76;98587.75;223594;182;145884;-57
2023/08/26 09:28:47;;;;;;;;;;;;;;;28.85;50.70;98589.09;223578;181;138591;-57
2023/08/26 09:34:01;;;;;;;7.10;4.60;;;;;;;28.96;50.15;98591.82;223555;182;129439;-62
2023/08/26 09:39:12;;;;;;;5.30;4.00;;;;;;;29.09;50.37;98589.66;223594;181;156908;-58
2023/08/26 09:44:17;;;;;;;7.10;4.50;;;;;;;29.22;50.39;98583.11;223679;182;140709;-58
2023/08/26 09:49:21;;;;;;;7.30;4.80;;;;;;;29.32;50.55;98570.69;223594;182;137976;-59
2023/08/26 09:54:24;;;;;;;7.60;4.40;;;;;;;29.41;49.95;98576.50;223541;181;147450;-57
2023/08/26 09:59:27;;;;;;;8.00;5.00;;;;;;;29.52;49.84;98577.38;223694;181;138672;-56
2023/08/26 10:04:36;;;;;;;8.00;5.10;;;;;;;29.58;49.34;98577.45;223660;182;137989;-57
2023/08/26 10:09:46;;;;;;;8.00;5.30;;;;;;;29.53;49.33;98577.13;223668;182;146414;-57
2023/08/26 10:14:51;;;;;;;9.20;5.20;;;;;;;29.49;49.77;98565.23;223578;181;138727;-58
2023/08/26 10:19:56;;;;;;;8.60;7.20;;;;;;;29.47;50.06;98557.65;223695;182;140214;-60
2023/08/26 10:25:00;;;;;;;8.90;6.10;;;;;;;29.46;50.29;98538.27;223681;182;145802;-58
2023/08/26 10:30:06;;;;;;;22.90;16.40;;;;;;;29.43;50.26;98516.73;223639;181;138984;-60
2023/08/26 10:35:12;;;;;;;14.30;10.10;;;;;;;29.35;51.28;98502.58;223618;182;137437;-60
2023/08/26 10:40:17;;;;;;;7.80;5.90;;;;;;;29.26;52.04;98511.42;223675;181;146801;-60
2023/08/26 10:45:23;;;;;;;10.00;6.50;;;;;;;29.20;51.61;98529.49;223544;182;138704;-60
2023/08/26 10:50:28;;;;;;;8.70;6.70;;;;;;;29.20;51.46;98555.52;223693;182;137296;-59
2023/08/26 10:55:34;;;;;;;13.50;8.50;;;;;;;29.18;51.65;98569.17;223690;182;146750;-60
2023/08/26 11:00:40;;;;;;;10.70;8.20;;;;;;;29.14;52.13;98549.68;223608;182;140617;-57
2023/08/26 11:05:45;;;;;;;13.60;7.20;;;;;;;29.04;52.91;98567.02;223651;182;136965;-66
2023/08/26 11:10:51;;;;;;;9.10;5.90;;;;;;;28.95;52.79;98604.30;223651;182;146512;-65
2023/08/26 11:15:54;;;;;;;12.00;7.70;;;;;;;28.90;52.95;98599.16;223581;182;138562;-64
2023/08/26 11:21:03;;;;;;;11.80;6.30;;;;;;;28.82;53.90;98609.52;223742;181;139892;-60
2023/08/26 11:26:07;;;;;;;8.90;5.90;;;;;;;28.74;53.47;98608.77;223751;181;145814;-61
2023/08/26 11:31:11;;;;;;;9.40;6.10;;;;;;;28.70;53.55;98619.93;223693;182;139680;-62
2023/08/26 11:36:19;;;;;;;12.30;7.00;;;;;;;28.62;54.45;98633.35;223803;181;137171;-63
2023/08/26 11:41:22;;;;;;;12.30;5.80;;;;;;;28.50;55.62;98637.05;223622;182;145826;-62
2023/08/26 11:46:25;;;;;;;10.00;6.40;;;;;;;28.38;56.20;98641.27;223675;182;138694;-60
2023/08/26 11:51:29;;;;;;;12.40;6.70;;;;;;;28.23;56.89;98620.17;223694;178;137280;-60
2023/08/26 11:56:32;;;;;;;9.40;5.90;;;;;;;28.09;57.57;98596.34;223758;181;145534;-60
2023/08/26 12:01:36;;;;;;;10.00;6.60;;;;;;;27.92;58.12;98607.45;223628;181;138815;-62
2023/08/26 12:06:40;;;;;;;8.60;6.00;;;;;;;27.79;58.84;98624.11;223614;182;137177;-62
2023/08/26 12:11:43;;;;;;;11.00;5.70;;;;;;;27.68;59.68;98684.54;223638;182;146362;-63
2023/08/26 12:16:46;;;;;;;12.40;4.30;;;;;;;27.41;61.38;98750.94;223542;182;137916;-61
2023/08/26 12:21:50;;;;;;;10.60;4.10;;;;;;;26.94;61.10;98753.58;223605;182;139182;-63
2023/08/26 12:26:54;;;;;;;7.20;3.90;;;;;;;26.50;61.34;98753.10;223721;182;146343;-61
2023/08/26 12:31:57;;;;;;;7.60;3.50;;;;;;;26.13;61.68;98749.79;223734;182;139243;-62
2023/08/26 12:37:00;;;;;;;5.00;3.40;;;;;;;25.93;61.80;98734.32;223628;181;136848;-62
2023/08/26 12:42:04;;;;;;;5.50;3.30;;;;;;;25.70;62.55;98776.59;223630;181;146149;-60
2023/08/26 12:47:08;;;;;;;6.10;3.50;;;;;;;25.44;63.39;98834.20;223714;182;139098;-61
2023/08/26 12:52:11;;;;;;;5.50;3.10;;;;;;;25.11;64.40;98801.69;223727;182;136458;-64
2023/08/26 12:57:15;;;;;;;8.90;3.20;;;;;;;24.77;65.77;98763.57;223629;181;146194;-62
2023/08/26 13:02:18;;;;;;;7.00;3.60;;;;;;;24.53;66.78;98747.56;223596;182;138924;-62
2023/08/26 13:07:21;;;;;;;7.40;3.20;;;;;;;24.37;67.38;98765.38;223640;181;137732;-64
2023/08/26 13:12:24;;;;;;;8.20;2.90;;;;;;;24.27;68.01;98779.44;223604;181;145874;-59
2023/08/26 13:17:27;;;;;;;7.00;2.80;;;;;;;24.29;68.62;98770.30;223443;182;138530;-58
2023/08/26 13:22:30;;;;;;;5.60;2.80;;;;;;;24.43;68.89;98730.90;223539;181;139239;-60
2023/08/26 13:27:34;;;;;;;6.20;2.80;;;;;;;24.46;68.65;98687.33;223437;179;146377;-60
2023/08/26 13:32:37;;;;;;;8.00;3.10;;;;;;;24.43;68.47;98672.52;223542;182;138857;-61
2023/08/26 13:37:40;;;;;;;8.40;3.40;;;;;;;24.27;69.17;98619.85;223609;182;136445;-60
2023/08/26 13:42:43;;;;;;;6.90;2.80;;;;;;;24.18;69.77;98553.98;223551;182;145625;-61
2023/08/26 13:47:47;;;;;;;5.10;3.00;;;;;;;24.22;70.16;98475.59;223587;182;138753;-60
2023/08/26 13:52:50;;;;;;;5.80;2.70;;;;;;;24.19;69.83;98558.72;223650;182;137225;-61
2023/08/26 13:57:53;;;;;;;5.30;3.00;;;;;;;24.10;69.78;98606.41;223438;182;146012;-60
2023/08/26 14:02:57;;;;;;;6.40;3.40;;;;;;;24.21;70.31;98612.17;223497;182;139601;-60
2023/08/26 14:08:00;;;;;;;6.50;2.80;;;;;;;24.17;70.51;98700.23;223559;182;137800;-60
2023/08/26 14:13:04;;;;;;;6.40;2.60;;;;;;;24.11;70.80;98718.17;223567;182;148185;-64
2023/08/26 14:18:08;;;;;;;6.10;2.60;;;;;;;24.08;70.77;98724.52;223573;182;140451;-60
2023/08/26 14:23:11;;;;;;;4.10;2.20;;;;;;;24.01;71.02;98730.98;223496;182;136914;-63
2023/08/26 14:28:14;;;;;;;4.70;2.10;;;;;;;23.97;71.04;98726.45;223317;182;145851;-62
2023/08/26 14:33:17;;;;;;;6.80;2.30;;;;;;;23.97;71.22;98717.17;223637;182;138739;-65
2023/08/26 14:38:21;;;;;;;3.60;2.30;;;;;;;24.03;71.10;98699.27;223680;182;137042;-62
2023/08/26 14:43:24;;;;;;;4.00;2.50;;;;;;;23.97;70.72;98700.83;223618;182;146424;-64
2023/08/26 14:48:29;;;;;;;3.80;2.40;;;;;;;24.00;71.24;98688.15;223574;181;139427;-63
2023/08/26 14:53:33;;;;;;;5.60;2.50;;;;;;;24.08;71.31;98683.77;223624;182;137054;-65
2023/08/26 14:58:36;;;;;;;2.70;1.60;;;;;;;24.12;70.66;98678.59;223591;181;147667;-65
2023/08/26 15:03:39;;;;;;;4.90;1.90;;;;;;;24.15;68.93;98687.20;223492;181;140615;-64
2023/08/26 15:08:42;;;;;;;3.00;1.70;;;;;;;24.19;68.69;98690.48;223660;181;141302;-63
2023/08/26 15:13:45;;;;;;;3.50;1.90;;;;;;;24.21;68.99;98698.99;223466;181;148215;-65
2023/08/26 15:18:49;;;;;;;5.10;2.50;;;;;;;24.23;69.28;98684.33;223669;181;139612;-59
2023/08/26 15:23:52;;;;;;;3.10;2.00;;;;;;;24.19;69.05;98666.38;223609;181;136738;-64
2023/08/26 15:28:55;;;;;;;2.90;1.90;;;;;;;24.16;69.38;98652.58;223569;181;148172;-60
2023/08/26 15:33:59;;;;;;;3.60;2.10;;;;;;;24.16;69.45;98657.31;223691;181;140116;-64
2023/08/26 15:39:02;;;;;;;3.90;2.50;;;;;;;24.20;69.21;98655.71;223564;182;139428;-65
2023/08/26 15:44:06;;;;;;;4.30;2.10;;;;;;;24.26;69.47;98660.13;223665;180;147695;-60
2023/08/26 15:49:09;;;;;;;5.70;2.60;;;;;;;24.44;69.88;98646.95;223527;181;139061;-59
2023/08/26 15:54:12;;;;;;;4.00;2.80;;;;;;;24.59;69.39;98622.71;223606;181;138211;-62
2023/08/26 15:59:15;;;;;;;6.20;2.90;;;;;;;24.67;69.30;98629.86;223573;181;149221;-58
2023/08/26 16:04:19;;;;;;;5.90;2.70;;;;;;;24.80;69.06;98632.73;223457;181;138640;-61
2023/08/26 16:09:25;;;;;;;4.70;2.70;;;;;;;24.90;68.73;98633.49;223518;182;137620;-61
2023/08/26 16:14:29;;;;;;;5.10;2.70;;;;;;;25.01;68.34;98623.27;223526;182;147769;-62
2023/08/26 16:19:32;;;;;;;6.40;2.70;;;;;;;25.12;67.64;98613.65;223453;181;138807;-62
2023/08/26 16:24:35;;;;;;;6.50;2.70;;;;;;;25.14;66.97;98601.77;223617;182;136982;-62
2023/08/26 16:29:39;;;;;;;5.60;3.00;;;;;;;25.14;66.66;98587.41;223574;181;147624;-62
2023/08/26 16:34:42;;;;;;;6.30;2.40;;;;;;;25.11;66.48;98584.93;223533;182;138971;-61
2023/08/26 16:39:45;;;;;;;4.70;2.50;;;;;;;25.07;66.18;98589.39;223534;181;137599;-62
2023/08/26 16:44:48;;;;;;;3.40;2.10;;;;;;;25.04;66.09;98591.34;223595;181;260327;-57
2023/08/26 16:49:52;;;;;;;4.50;2.40;;;;;;;25.03;65.74;98585.76;223669;181;139090;-60
2023/08/26 16:54:55;;;;;;;2.80;2.00;;;;;;;25.00;65.50;98587.13;223723;181;136642;-61
2023/08/26 17:00:01;;;;;;;4.60;2.20;;;;;;;25.01;64.75;98595.84;223621;181;148452;-60
2023/08/26 17:05:05;;;;;;;3.50;2.40;;;;;;;24.94;64.34;98594.73;223634;181;139010;-61
2023/08/26 17:10:08;;;;;;;5.00;2.60;;;;;;;24.86;64.15;98588.05;223602;181;137669;-62
2023/08/26 17:15:11;;;;;;;6.10;3.10;;;;;;;24.74;64.60;98585.86;223615;181;148814;-60
2023/08/26 17:20:14;;;;;;;7.50;2.60;;;;;;;24.64;65.46;98579.55;223671;182;139371;-61
2023/08/26 17:25:17;;;;;;;4.10;2.70;;;;;;;24.62;65.55;98578.14;223691;181;137113;-58
2023/08/26 17:30:21;;;;;;;5.10;2.20;;;;;;;24.69;65.26;98585.88;223535;181;149553;-59
2023/08/26 17:35:24;;;;;;;5.20;2.60;;;;;;;24.79;64.84;98579.38;223571;181;139965;-59
2023/08/26 17:40:28;;;;;;;2.80;2.30;;;;;;;24.82;64.60;98587.90;223474;181;136864;-58
2023/08/26 17:45:31;;;;;;;4.80;2.50;;;;;;;24.75;64.55;98590.55;223591;181;148186;-60
2023/08/26 17:50:34;;;;;;;6.10;2.40;;;;;;;24.57;64.76;98591.09;223682;181;139504;-62
2023/08/26 17:55:37;;;;;;;4.80;2.50;;;;;;;24.34;65.75;98594.86;223543;181;137331;-61
2023/08/26 18:00:42;;;;;;;6.60;2.60;;;;;;;24.13;66.36;98599.88;223676;181;147706;-65
2023/08/26 18:05:45;;;;;;;6.00;2.60;;;;;;;24.06;66.68;98592.90;223583;181;139673;-63
2023/08/26 18:10:49;;;;;;;6.90;2.40;;;;;;;24.09;67.14;98595.48;223683;181;137186;-61
2023/08/26 18:15:52;;;;;;;5.40;2.90;;;;;;;24.16;66.90;98604.09;223609;182;147668;-61
2023/08/26 18:26:31;;;;;;;5.90;3.10;;;;;;;24.08;68.44;98603.04;222029;191;665044;-58
2023/08/26 18:31:34;;;;;;;4.90;2.90;;;;;;;24.04;68.31;98614.01;222754;188;136746;-58
2023/08/26 18:36:37;;;;;;;6.30;3.30;;;;;;;23.89;68.47;98614.33;222749;188;144165;-59
2023/08/26 18:41:40;;;;;;;4.10;2.90;;;;;;;23.82;69.32;98606.09;223165;185;138971;-57
2023/08/26 18:46:44;;;;;;;6.70;3.50;;;;;;;23.84;69.72;98598.26;223301;185;136828;-59
2023/08/26 18:51:48;;;;;;;13.30;5.40;;;;;;;23.85;69.40;98595.25;223255;185;144076;-59
2023/08/26 18:56:51;;;;;;;8.20;4.50;;;;;;;23.81;69.65;98594.28;223205;185;139432;-59
2023/08/26 19:01:55;;;;;;;11.30;5.40;;;;;;;23.74;70.15;98602.81;223251;185;137293;-60
2023/08/26 19:06:58;;;;;;;8.80;4.50;;;;;;;23.76;70.28;98610.36;223168;185;144552;-59
2023/08/26 19:12:03;;;;;;;11.30;5.20;;;;;;;23.74;70.79;98622.55;223203;185;138911;-59
2023/08/26 19:17:06;;;;;;;11.70;4.80;;;;;;;23.86;70.92;98620.45;223210;185;141171;-59
2023/08/26 19:22:10;;;;;;;7.90;4.70;;;;;;;23.88;70.40;98613.64;223264;184;145527;-57
2023/08/26 19:27:13;;;;;;;10.40;4.80;;;;;;;23.83;70.11;98616.27;223178;185;139429;-59
2023/08/26 19:32:16;;;;;;;9.20;4.90;;;;;;;23.80;70.31;98615.84;223100;184;137297;-58
2023/08/26 19:37:19;;;;;;;11.00;5.00;;;;;;;23.66;70.09;98612.55;223094;185;145601;-58
2023/08/26 19:42:23;;;;;;;10.00;5.40;;;;;;;23.50;70.31;98617.77;223170;185;140123;-59
2023/08/26 19:47:26;;;;;;;9.80;6.50;;;;;;;23.49;70.91;98611.86;223092;185;137585;-58
2023/08/26 19:52:30;;;;;;;10.60;7.30;;;;;;;23.56;71.61;98600.45;223221;185;145893;-59
2023/08/26 19:57:33;;;;;;;8.40;6.40;;;;;;;23.69;71.10;98603.20;223183;185;139477;-61
2023/08/26 20:02:37;;;;;;;12.40;7.40;;;;;;;23.73;71.19;98617.53;223293;185;137133;-61
2023/08/26 20:07:40;;;;;;;12.80;8.20;;;;;;;23.79;70.95;98612.86;223143;185;145409;-62
2023/08/26 20:12:44;;;;;;;13.70;6.80;;;;;;;23.71;71.20;98614.23;223159;184;140087;-59
2023/08/26 20:17:48;;;;;;;9.10;6.40;;;;;;;23.74;71.11;98592.27;223070;184;137335;-58
2023/08/26 20:22:52;;;;;;;10.90;5.60;;;;;;;23.75;70.93;98571.00;223072;185;146367;-61
2023/08/26 20:27:55;;;;;;;9.00;5.30;;;;;;;23.71;70.84;98581.24;223164;185;138850;-60
2023/08/26 20:32:59;;;;;;;8.80;5.20;;;;;;;23.79;71.52;98605.01;223266;184;136668;-61
2023/08/26 20:38:03;;;;;;;16.60;5.60;;;;;;;23.88;70.70;98595.58;223413;185;145664;-60
2023/08/26 20:43:06;;;;;;;14.60;4.80;;;;;;;23.86;70.32;98603.79;222437;185;139344;-61
2023/08/26 20:48:10;;;;;;;7.30;4.80;;;;;;;23.76;69.72;98619.15;223048;185;137095;-61
2023/08/26 20:53:15;;;;;;;8.10;4.30;;;;;;;23.54;69.98;98616.48;222543;185;146050;-60
2023/08/26 20:58:18;;;;;;;8.50;4.60;;;;;;;23.60;70.50;98609.17;223121;186;139654;-59
2023/08/26 21:03:21;;;;;;;11.50;4.80;;;;;;;23.65;70.41;98590.80;223207;184;136756;-60
2023/08/26 21:08:25;;;;;;;9.80;4.70;;;;;;;23.59;70.27;98608.61;223206;185;145882;-61
2023/08/26 21:13:28;;;;;;;9.40;5.30;;;;;;;23.54;70.53;98578.17;223053;184;139707;-62
2023/08/26 21:18:32;;;;;;;9.40;5.20;;;;;;;23.56;70.43;98567.83;223442;184;137042;-60
2023/08/26 21:23:35;;;;;;;10.70;5.20;;;;;;;23.48;70.71;98559.75;223434;184;147199;-59
2023/08/26 21:28:39;;;;;;;8.50;5.40;;;;;;;23.57;70.42;98593.23;223414;183;138648;-59
2023/08/26 21:33:42;;;;;;;9.80;5.60;;;;;;;23.54;70.70;98589.61;223438;183;137997;-58
2023/08/26 21:38:45;;;;;;;7.00;5.10;;;;;;;23.60;70.57;98579.83;223538;183;145954;-58
2023/08/26 21:43:51;;;;;;;7.80;5.80;;;;;;;23.69;70.73;98598.14;223516;183;138833;-58
2023/08/26 21:48:54;;;;;;;12.40;6.60;;;;;;;23.69;70.15;98624.57;223519;184;138981;-60
2023/08/26 21:53:57;;;;;;;9.00;6.30;;;;;;;23.59;70.07;98649.70;223387;183;148105;-61
2023/08/26 21:59:03;;;;;;;13.40;6.90;;;;;;;23.46;70.13;98640.81;223475;183;139809;-61
2023/08/26 22:04:06;;;;;;;;;;;;;;;23.41;70.95;98597.00;223548;183;137873;-60
2023/08/26 22:09:09;;;;;;;11.00;5.30;;;;;;;23.60;71.16;98550.48;223519;183;147040;-62
2023/08/26 22:14:13;;;;;;;12.70;6.30;;;;;;;23.56;70.47;98542.25;223500;184;138724;-62
2023/08/26 22:19:16;;;;;;;10.00;5.90;;;;;;;23.43;70.79;98516.21;223539;183;137493;-62
2023/08/26 22:24:20;;;;;;;10.10;5.30;;;;;;;23.28;71.31;98504.10;223344;183;145361;-61
2023/08/26 22:29:23;;;;;;;7.30;4.60;;;;;;;23.33;71.73;98476.73;223533;184;138672;-60
2023/08/26 22:34:26;;;;;;;8.60;4.60;;;;;;;23.41;71.88;98441.72;223482;184;136998;-60
2023/08/26 22:39:30;;;;;;;9.50;4.60;;;;;;;23.50;71.82;98451.77;223356;184;147580;-61
2023/08/26 22:44:33;;;;;;;8.50;5.40;;;;;;;23.63;71.09;98468.06;223535;183;139298;-59
2023/08/26 22:49:36;;;;;;;11.10;5.20;;;;;;;23.59;70.23;98491.05;223488;183;138391;-59
2023/08/26 22:54:39;;;;;;;6.70;4.50;;;;;;;23.56;70.54;98432.36;223516;183;145745;-59
2023/08/26 22:59:42;;;;;;;7.80;4.30;;;;;;;23.65;70.53;98392.67;223588;183;138568;-58
2023/08/26 23:04:46;;;;;;;8.70;4.70;;;;;;;23.76;70.39;98368.13;223579;183;136913;-59
2023/08/26 23:09:49;;;;;;;9.70;5.70;;;;;;;23.79;69.65;98372.60;223539;182;146095;-60
2023/08/26 23:14:54;;;;;;;7.50;5.20;;;;;;;23.59;69.64;98387.27;223531;184;138830;-60
2023/08/26 23:19:58;;;;;;;14.10;5.50;;;;;;;23.42;69.75;98399.75;223456;183;140792;-59
2023/08/26 23:25:01;;;;;;;8.10;5.20;;;;;;;23.19;70.78;98422.05;223506;183;147351;-60
2023/08/26 23:30:08;;;;;;;7.80;4.80;;;;;;;23.20;71.27;98461.46;223578;179;139652;-63
2023/08/26 23:35:11;;;;;;;13.20;5.90;;;;;;;23.18;71.69;98677.13;223597;183;138532;-60
2023/08/26 23:40:14;;;;;;;4.60;2.80;;;;;;;23.02;71.73;98733.54;223495;183;145843;-58